Time;durP1;ratioP1;P1;durP2;ratioP2;P2;SDS_P1;SDS_P2;PMS_P1;PMS_P2;Temp;Humidity;BMP_temperature;BMP_pressure;BME280_temperature;BME280_humidity;BME280_pressure;Samples;Min_cycle;Max_cycle;Signal;HPM_P1;HPM_P2
2024/03/14 00:01:06;;;;;;;55.15;15.65;;;;;;;-148.24;100.00;61531.34;5048981;28;20136;-62
2024/03/14 00:03:32;;;;;;;105.65;17.48;;;;;;;-148.24;100.00;61531.34;5047476;28;20031;-63
2024/03/14 00:05:57;;;;;;;53.35;15.07;;;;;;;-148.24;100.00;61531.34;5046391;28;20144;-62
2024/03/14 00:08:22;;;;;;;63.03;17.08;;;;;;;-148.24;100.00;61531.34;5045050;28;20017;-63
2024/03/14 00:10:50;;;;;;;86.95;18.42;;;;;;;-148.24;100.00;61531.34;5044828;28;20063;-64
2024/03/14 00:13:15;;;;;;;56.42;16.52;;;;;;;-148.24;100.00;61531.34;5047778;28;20484;-62
2024/03/14 00:15:42;;;;;;;71.70;18.10;;;;;;;-148.24;100.00;61531.34;5044872;28;20040;-64
2024/03/14 00:18:09;;;;;;;69.60;18.65;;;;;;;-148.24;100.00;61531.34;5047088;28;20036;-63
2024/03/14 00:20:35;;;;;;;72.88;17.02;;;;;;;-148.24;100.00;61531.34;5044763;28;20045;-63
2024/03/14 00:23:00;;;;;;;49.60;15.35;;;;;;;-148.24;100.00;61531.34;5049713;28;20048;-64
2024/03/14 00:25:26;;;;;;;85.13;17.98;;;;;;;-148.24;100.00;61531.34;5045093;28;20436;-60
2024/03/14 00:27:52;;;;;;;49.28;15.93;;;;;;;-148.24;100.00;61531.34;5044564;28;20063;-64
2024/03/14 00:30:18;;;;;;;74.10;17.08;;;;;;;-148.24;100.00;61531.34;5044549;28;20104;-64
2024/03/14 00:32:44;;;;;;;61.83;15.38;;;;;;;-148.24;100.00;61531.34;5046214;28;20021;-62
2024/03/14 00:35:12;;;;;;;63.72;15.88;;;;;;;-148.24;100.00;61531.34;5045152;28;20320;-62
2024/03/14 00:37:41;;;;;;;77.50;18.38;;;;;;;-148.24;100.00;61531.34;5045874;28;20073;-62
2024/03/14 00:40:08;;;;;;;68.63;19.42;;;;;;;-148.24;100.00;61531.34;5045998;28;20284;-63
2024/03/14 00:42:34;;;;;;;60.60;19.02;;;;;;;-148.24;100.00;61531.34;5047032;28;20109;-63
2024/03/14 00:45:00;;;;;;;66.50;18.35;;;;;;;-148.24;100.00;61531.34;5046227;28;20455;-63
2024/03/14 00:47:26;;;;;;;53.58;18.77;;;;;;;-148.24;100.00;61531.34;5045022;28;20532;-62
2024/03/14 00:49:52;;;;;;;58.88;19.75;;;;;;;-148.24;100.00;61531.34;5044740;28;20032;-63
2024/03/14 00:52:17;;;;;;;87.93;20.85;;;;;;;-148.24;100.00;61531.34;5044597;28;20037;-61
2024/03/14 00:54:43;;;;;;;84.28;22.13;;;;;;;-148.24;100.00;61531.34;5044802;28;20121;-63
2024/03/14 00:57:08;;;;;;;56.13;19.90;;;;;;;-148.24;100.00;61531.34;5046498;28;20037;-63
2024/03/14 00:59:33;;;;;;;94.38;22.88;;;;;;;-148.24;100.00;61531.34;5046507;28;20469;-62
2024/03/14 01:01:59;;;;;;;59.88;19.85;;;;;;;-148.24;100.00;61531.34;5043880;28;20041;-62
2024/03/14 01:04:25;;;;;;;64.50;19.65;;;;;;;-148.24;100.00;61531.34;5047402;28;20369;-62
2024/03/14 01:06:52;;;;;;;62.30;19.45;;;;;;;-148.24;100.00;61531.34;5046976;28;20256;-63
2024/03/14 01:09:18;;;;;;;71.95;19.80;;;;;;;-148.24;100.00;61531.34;5045718;28;20062;-62
2024/03/14 01:11:43;;;;;;;90.35;22.60;;;;;;;-148.24;100.00;61531.34;5044026;28;20033;-63
2024/03/14 01:14:11;;;;;;;73.97;22.75;;;;;;;-148.24;100.00;61531.34;5049175;28;20061;-64
2024/03/14 01:16:37;;;;;;;58.50;21.35;;;;;;;-148.24;100.00;61531.34;5044309;28;20123;-63
2024/03/14 01:19:02;;;;;;;74.57;21.33;;;;;;;-148.24;100.00;61531.34;5045574;28;20444;-63
2024/03/14 01:21:28;;;;;;;66.82;21.40;;;;;;;-148.24;100.00;61531.34;5045547;28;20059;-62
2024/03/14 01:23:54;;;;;;;61.47;20.10;;;;;;;-148.24;100.00;61531.34;5061122;28;20029;-64
2024/03/14 01:26:20;;;;;;;84.75;21.75;;;;;;;-148.24;100.00;61531.34;5044355;28;20028;-63
2024/03/14 01:28:46;;;;;;;71.00;21.60;;;;;;;-148.24;100.00;61531.34;5045848;28;20017;-63
2024/03/14 01:31:11;;;;;;;66.20;20.13;;;;;;;-148.24;100.00;61531.34;5047220;28;20033;-63
2024/03/14 01:33:36;;;;;;;98.40;22.50;;;;;;;-148.24;100.00;61531.34;5045033;28;20032;-63
2024/03/14 01:36:02;;;;;;;51.22;19.60;;;;;;;-148.24;100.00;61531.34;5043240;28;20040;-63
2024/03/14 01:38:27;;;;;;;55.40;19.35;;;;;;;-148.24;100.00;61531.34;5044680;28;20024;-63
2024/03/14 01:40:53;;;;;;;72.13;20.40;;;;;;;-148.24;100.00;61531.34;5045898;28;20716;-62
2024/03/14 01:43:18;;;;;;;54.22;19.27;;;;;;;-148.24;100.00;61531.34;5051568;28;20094;-63
2024/03/14 01:45:46;;;;;;;71.75;21.08;;;;;;;-148.24;100.00;61531.34;5048829;28;20033;-62
2024/03/14 01:48:12;;;;;;;80.35;19.90;;;;;;;-148.24;100.00;61531.34;5048350;28;20111;-63
2024/03/14 01:50:38;;;;;;;70.45;18.88;;;;;;;-148.24;100.00;61531.34;5049205;28;20205;-64
2024/03/14 01:53:04;;;;;;;56.10;19.52;;;;;;;-148.24;100.00;61531.34;5052583;28;20056;-63
2024/03/14 01:55:30;;;;;;;79.45;19.75;;;;;;;-148.24;100.00;61531.34;5050005;28;20036;-63
2024/03/14 01:57:57;;;;;;;55.53;19.45;;;;;;;-148.24;100.00;61531.34;5050075;28;20032;-63
2024/03/14 02:00:29;;;;;;;66.15;18.23;;;;;;;-148.24;100.00;61531.34;5049626;28;20098;-62
2024/03/14 02:02:56;;;;;;;56.95;19.63;;;;;;;-148.24;100.00;61531.34;5048411;28;20446;-65
2024/03/14 02:05:33;;;;;;;49.83;16.98;;;;;;;-148.24;100.00;61531.34;5048191;28;20241;-63
2024/03/14 02:07:58;;;;;;;65.63;19.67;;;;;;;-148.24;100.00;61531.34;5040219;28;20560;-64
2024/03/14 02:10:25;;;;;;;64.13;19.30;;;;;;;-148.24;100.00;61531.34;5046286;28;20031;-64
2024/03/14 02:12:54;;;;;;;57.17;18.58;;;;;;;-148.24;100.00;61531.34;5048045;28;20107;-63
2024/03/14 02:15:19;;;;;;;75.43;19.08;;;;;;;-148.24;100.00;61531.34;5049639;28;20028;-63
2024/03/14 02:17:45;;;;;;;86.35;21.77;;;;;;;-148.24;100.00;61531.34;5047174;28;20025;-64
2024/03/14 02:20:14;;;;;;;87.95;21.23;;;;;;;-148.24;100.00;61531.34;5048327;28;20614;-63
2024/03/14 02:22:40;;;;;;;81.53;21.55;;;;;;;-148.24;100.00;61531.34;5045870;28;20032;-62
2024/03/14 02:25:06;;;;;;;75.45;19.92;;;;;;;-148.24;100.00;61531.34;5047453;28;20464;-63
2024/03/14 02:27:34;;;;;;;77.97;19.95;;;;;;;-148.24;100.00;61531.34;5022105;28;20023;-62
2024/03/14 02:30:00;;;;;;;62.13;16.77;;;;;;;-148.24;100.00;61531.34;5046883;28;20024;-62
2024/03/14 02:32:26;;;;;;;66.18;18.63;;;;;;;-148.24;100.00;61531.34;5038207;28;20041;-63
2024/03/14 02:34:51;;;;;;;76.85;18.83;;;;;;;-148.24;100.00;61531.34;5045849;28;20250;-62
2024/03/14 02:37:17;;;;;;;68.78;18.33;;;;;;;-148.24;100.00;61531.34;5048984;28;20095;-64
2024/03/14 02:39:42;;;;;;;74.43;19.40;;;;;;;-148.24;100.00;61531.34;5045494;28;20029;-63
2024/03/14 02:42:10;;;;;;;79.18;19.25;;;;;;;-148.24;100.00;61531.34;5046634;28;20232;-64
2024/03/14 02:44:36;;;;;;;54.88;17.20;;;;;;;-148.24;100.00;61531.34;5046844;28;20111;-63
2024/03/14 02:47:02;;;;;;;56.00;18.30;;;;;;;-148.24;100.00;61531.34;5031939;28;20109;-62
2024/03/14 02:49:27;;;;;;;76.35;17.67;;;;;;;-148.24;100.00;61531.34;5047086;28;20032;-63
2024/03/14 02:51:52;;;;;;;54.75;15.75;;;;;;;-148.24;100.00;61531.34;5045618;28;20594;-62
2024/03/14 02:54:19;;;;;;;79.82;19.27;;;;;;;-148.24;100.00;61531.34;5048442;28;20135;-63
2024/03/14 02:56:49;;;;;;;83.18;18.75;;;;;;;-148.24;100.00;61531.34;5046991;28;20029;-65
2024/03/14 02:59:19;;;;;;;58.78;17.00;;;;;;;-148.24;100.00;61531.34;5048026;28;20108;-63
2024/03/14 03:01:45;;;;;;;107.95;19.05;;;;;;;-148.24;100.00;61531.34;5045091;28;20428;-62
2024/03/14 03:04:10;;;;;;;64.10;16.02;;;;;;;-148.24;100.00;61531.34;5033406;28;20502;-62
2024/03/14 03:06:43;;;;;;;71.85;17.98;;;;;;;-148.24;100.00;61531.34;5047833;28;20063;-63
2024/03/14 03:09:09;;;;;;;77.22;18.35;;;;;;;-148.24;100.00;61531.34;5047503;28;20290;-63
2024/03/14 03:11:37;;;;;;;62.72;16.75;;;;;;;-148.24;100.00;61531.34;5048579;28;20124;-62
2024/03/14 03:14:02;;;;;;;69.47;16.83;;;;;;;-148.24;100.00;61531.34;5048292;28;20078;-63
2024/03/14 03:16:28;;;;;;;63.35;15.90;;;;;;;-148.24;100.00;61531.34;5046759;28;20040;-64
2024/03/14 03:18:53;;;;;;;46.60;15.43;;;;;;;-148.24;100.00;61531.34;5047151;28;20485;-63
2024/03/14 03:21:20;;;;;;;89.07;17.83;;;;;;;-148.24;100.00;61531.34;5044013;28;20037;-62
2024/03/14 03:23:45;;;;;;;86.70;18.77;;;;;;;-148.24;100.00;61531.34;5048114;28;20013;-63
2024/03/14 03:26:11;;;;;;;75.80;16.55;;;;;;;-148.24;100.00;61531.34;5045782;28;20043;-61
2024/03/14 03:28:36;;;;;;;89.20;17.65;;;;;;;-148.24;100.00;61531.34;5044778;28;20032;-61
2024/03/14 03:31:08;;;;;;;58.78;16.63;;;;;;;-148.24;100.00;61531.34;5045950;28;20048;-61
2024/03/14 03:33:33;;;;;;;62.00;18.13;;;;;;;-148.24;100.00;61531.34;5047930;28;20020;-62
2024/03/14 03:35:58;;;;;;;66.82;17.58;;;;;;;-148.24;100.00;61531.34;5045212;28;20063;-59
2024/03/14 03:38:24;;;;;;;60.88;17.85;;;;;;;-148.24;100.00;61531.34;5031751;28;20028;-61
2024/03/14 03:40:51;;;;;;;89.60;19.45;;;;;;;-148.24;100.00;61531.34;5045329;28;20455;-62
2024/03/14 03:43:16;;;;;;;70.88;17.95;;;;;;;-148.24;100.00;61531.34;5046870;28;20025;-62
2024/03/14 03:45:42;;;;;;;59.97;15.43;;;;;;;-148.24;100.00;61531.34;5044956;28;20068;-60
2024/03/14 03:48:11;;;;;;;72.88;16.67;;;;;;;-148.24;100.00;61531.34;5050051;28;20020;-61
2024/03/14 03:50:36;;;;;;;64.22;16.30;;;;;;;-148.24;100.00;61531.34;5045711;28;20505;-61
2024/03/14 03:53:02;;;;;;;57.67;14.73;;;;;;;-148.24;100.00;61531.34;5046794;28;20039;-61
2024/03/14 03:55:28;;;;;;;72.18;16.92;;;;;;;-148.24;100.00;61531.34;5046659;28;20048;-61
2024/03/14 03:57:53;;;;;;;94.47;16.98;;;;;;;-148.24;100.00;61531.34;5046031;28;20099;-61
2024/03/14 04:00:33;;;;;;;86.53;17.23;;;;;;;-148.24;100.00;61531.34;5046260;28;20021;-62
2024/03/14 04:02:59;;;;;;;76.22;15.70;;;;;;;-148.24;100.00;61531.34;5044706;28;20020;-62
2024/03/14 04:05:25;;;;;;;52.42;14.55;;;;;;;-148.24;100.00;61531.34;5046838;28;20040;-62
2024/03/14 04:07:52;;;;;;;107.20;16.35;;;;;;;-148.24;100.00;61531.34;5046275;28;20465;-60
2024/03/14 04:10:17;;;;;;;87.78;15.65;;;;;;;-148.24;100.00;61531.34;5037401;28;20021;-60
2024/03/14 04:12:44;;;;;;;96.03;15.27;;;;;;;-148.24;100.00;61531.34;5046556;28;20048;-60
2024/03/14 04:15:10;;;;;;;102.70;17.00;;;;;;;-148.24;100.00;61531.34;5046048;28;20642;-61
2024/03/14 04:17:36;;;;;;;83.18;14.57;;;;;;;-148.24;100.00;61531.34;5045227;28;20036;-60
2024/03/14 04:20:10;;;;;;;67.38;13.20;;;;;;;-148.24;100.00;61531.34;5043856;28;20108;-60
2024/03/14 04:22:36;;;;;;;109.45;14.70;;;;;;;-148.24;100.00;61531.34;5047039;28;20025;-60
2024/03/14 04:25:03;;;;;;;75.00;13.13;;;;;;;-148.24;100.00;61531.34;5046244;28;20039;-61
2024/03/14 04:27:29;;;;;;;100.85;14.25;;;;;;;-148.24;100.00;61531.34;5044802;28;20060;-60
2024/03/14 04:29:55;;;;;;;90.43;13.80;;;;;;;-148.24;100.00;61531.34;5045185;28;20028;-62
2024/03/14 04:32:20;;;;;;;76.53;13.30;;;;;;;-148.24;100.00;61531.34;5046299;28;20044;-60
2024/03/14 04:34:45;;;;;;;121.50;16.58;;;;;;;-148.24;100.00;61531.34;5028194;28;20059;-62
2024/03/14 04:37:12;;;;;;;65.57;13.02;;;;;;;-148.24;100.00;61531.34;5045251;28;20136;-60
2024/03/14 04:39:38;;;;;;;87.22;12.40;;;;;;;-148.24;100.00;61531.34;5046957;28;20542;-61
2024/03/14 04:42:05;;;;;;;69.85;11.63;;;;;;;-148.24;100.00;61531.34;5045959;28;20041;-61
2024/03/14 04:44:33;;;;;;;70.50;12.05;;;;;;;-148.24;100.00;61531.34;5045756;28;20021;-61
2024/03/14 04:46:58;;;;;;;65.40;12.32;;;;;;;-148.24;100.00;61531.34;5044806;28;22006;-62
2024/03/14 04:49:24;;;;;;;84.90;14.15;;;;;;;-148.24;100.00;61531.34;5045558;28;20408;-61
2024/03/14 04:51:49;;;;;;;76.78;13.35;;;;;;;-148.24;100.00;61531.34;5044485;28;20315;-62
2024/03/14 04:54:14;;;;;;;80.65;14.73;;;;;;;-148.24;100.00;61531.34;5046839;28;20572;-62
2024/03/14 04:56:40;;;;;;;84.55;14.40;;;;;;;-148.24;100.00;61531.34;5043976;28;20051;-62
2024/03/14 04:59:09;;;;;;;59.58;12.50;;;;;;;-148.24;100.00;61531.34;5045762;28;20483;-61
2024/03/14 05:01:35;;;;;;;67.30;13.43;;;;;;;-148.24;100.00;61531.34;5044368;28;20033;-62
2024/03/14 05:04:01;;;;;;;76.40;14.55;;;;;;;-148.24;100.00;61531.34;5045518;28;20407;-61
2024/03/14 05:06:26;;;;;;;70.82;14.18;;;;;;;-148.24;100.00;61531.34;5044935;28;20564;-64
2024/03/14 05:08:51;;;;;;;98.43;15.43;;;;;;;-148.24;100.00;61531.34;5029704;28;20207;-64
2024/03/14 05:11:17;;;;;;;82.35;17.52;;;;;;;-148.24;100.00;61531.34;5045219;28;20060;-62
2024/03/14 05:13:42;;;;;;;67.22;14.85;;;;;;;-148.24;100.00;61531.34;5029376;28;20304;-61
2024/03/14 05:16:09;;;;;;;86.65;14.65;;;;;;;-148.24;100.00;61531.34;5048148;28;20076;-61
2024/03/14 05:18:34;;;;;;;60.22;13.35;;;;;;;-148.24;100.00;61531.34;5049491;28;20292;-65
2024/03/14 05:21:00;;;;;;;55.00;14.85;;;;;;;-148.24;100.00;61531.34;5048058;28;20850;-61
2024/03/14 05:23:25;;;;;;;86.90;16.70;;;;;;;-148.24;100.00;61531.34;5050778;28;20123;-61
2024/03/14 05:25:52;;;;;;;96.38;17.73;;;;;;;-148.24;100.00;61531.34;5049725;28;20493;-61
2024/03/14 05:28:18;;;;;;;74.20;16.70;;;;;;;-148.24;100.00;61531.34;5049748;28;20504;-60
2024/03/14 05:30:44;;;;;;;77.78;13.70;;;;;;;-148.24;100.00;61531.34;5048783;28;20040;-62
2024/03/14 05:33:09;;;;;;;54.38;13.68;;;;;;;-148.24;100.00;61531.34;5049415;28;20012;-60
2024/03/14 05:35:35;;;;;;;88.30;15.82;;;;;;;-148.24;100.00;61531.34;5049071;28;20401;-62
2024/03/14 05:38:00;;;;;;;85.20;15.10;;;;;;;-148.24;100.00;61531.34;5046164;28;20238;-60
2024/03/14 05:40:26;;;;;;;64.47;16.02;;;;;;;-148.24;100.00;61531.34;5050518;28;20025;-62
2024/03/14 05:42:52;;;;;;;89.70;14.43;;;;;;;-148.24;100.00;61531.34;5050516;28;20054;-62
2024/03/14 05:45:18;;;;;;;109.82;17.75;;;;;;;-148.24;100.00;61531.34;5046859;28;20152;-61
2024/03/14 05:47:43;;;;;;;72.35;15.35;;;;;;;-148.24;100.00;61531.34;5046113;28;20116;-60
2024/03/14 05:50:09;;;;;;;90.82;18.85;;;;;;;-148.24;100.00;61531.34;5049717;28;20031;-62
2024/03/14 05:52:35;;;;;;;101.32;16.77;;;;;;;-148.24;100.00;61531.34;5048566;28;20016;-61
2024/03/14 05:55:01;;;;;;;90.35;16.17;;;;;;;-148.24;100.00;61531.34;5049817;28;20067;-62
2024/03/14 05:57:27;;;;;;;56.72;12.73;;;;;;;-148.24;100.00;61531.34;5048298;28;20212;-63
2024/03/14 05:59:52;;;;;;;112.15;18.15;;;;;;;-148.24;100.00;61531.34;5044954;28;20617;-62
2024/03/14 06:02:18;;;;;;;71.72;17.23;;;;;;;-148.24;100.00;61531.34;5046678;28;20140;-61
2024/03/14 06:04:44;;;;;;;65.63;16.58;;;;;;;-148.24;100.00;61531.34;5048079;28;20028;-62
2024/03/14 06:07:10;;;;;;;81.18;16.38;;;;;;;-148.24;100.00;61531.34;5047527;28;20045;-61
2024/03/14 06:09:42;;;;;;;74.85;15.93;;;;;;;-148.24;100.00;61531.34;5049199;28;20013;-61
2024/03/14 06:12:12;;;;;;;86.65;16.60;;;;;;;-148.24;100.00;61531.34;5045810;28;20025;-62
2024/03/14 06:14:39;;;;;;;52.17;13.52;;;;;;;-148.24;100.00;61531.34;5046661;28;20664;-62
2024/03/14 06:17:04;;;;;;;61.97;16.48;;;;;;;-148.24;100.00;61531.34;5047525;28;20133;-61
2024/03/14 06:19:29;;;;;;;90.25;18.70;;;;;;;-148.24;100.00;61531.34;5047071;28;20083;-62
2024/03/14 06:21:56;;;;;;;64.30;17.05;;;;;;;-148.24;100.00;61531.34;5046446;28;20603;-62
2024/03/14 06:24:22;;;;;;;61.65;17.55;;;;;;;-148.24;100.00;61531.34;5048874;28;20071;-62
2024/03/14 06:26:47;;;;;;;77.70;19.42;;;;;;;-148.24;100.00;61531.34;5046580;28;20119;-62
2024/03/14 06:29:13;;;;;;;72.80;19.30;;;;;;;-148.24;100.00;61531.34;5047296;28;20029;-62
2024/03/14 06:31:38;;;;;;;53.60;17.50;;;;;;;-148.24;100.00;61531.34;5049110;28;20052;-60
2024/03/14 06:34:04;;;;;;;84.38;19.40;;;;;;;-148.24;100.00;61531.34;5045429;28;21891;-60
2024/03/14 06:36:29;;;;;;;58.45;17.80;;;;;;;-148.24;100.00;61531.34;5047153;28;20091;-61
2024/03/14 06:38:55;;;;;;;84.10;19.77;;;;;;;-148.24;100.00;61531.34;5048896;28;20032;-61
2024/03/14 06:41:21;;;;;;;95.18;21.38;;;;;;;-148.24;100.00;61531.34;5047594;28;20090;-60
2024/03/14 06:43:47;;;;;;;63.08;17.95;;;;;;;-148.24;100.00;61531.34;5046923;28;20108;-61
2024/03/14 06:46:15;;;;;;;60.00;18.65;;;;;;;-148.24;100.00;61531.34;5048268;28;20456;-60
2024/03/14 06:48:40;;;;;;;78.57;19.55;;;;;;;-148.24;100.00;61531.34;5046654;28;20024;-62
2024/03/14 06:51:06;;;;;;;59.88;20.38;;;;;;;-148.24;100.00;61531.34;5046134;28;20044;-63
2024/03/14 06:53:32;;;;;;;78.10;16.83;;;;;;;-148.24;100.00;61531.34;5045311;28;20017;-60
2024/03/14 06:55:57;;;;;;;87.70;17.20;;;;;;;-148.24;100.00;61531.34;5047796;28;20040;-61
2024/03/14 06:58:24;;;;;;;52.25;14.77;;;;;;;-148.24;100.00;61531.34;5048404;28;20071;-61
2024/03/14 07:00:49;;;;;;;78.65;17.88;;;;;;;-148.24;100.00;61531.34;5045017;28;20051;-61
2024/03/14 07:03:16;;;;;;;63.40;19.42;;;;;;;-148.24;100.00;61531.34;5021604;28;20025;-61
2024/03/14 07:05:43;;;;;;;53.05;18.75;;;;;;;-148.24;100.00;61531.34;5047213;28;20144;-63
2024/03/14 07:08:11;;;;;;;83.55;19.80;;;;;;;-148.24;100.00;61531.34;5048887;28;20552;-62
2024/03/14 07:10:37;;;;;;;63.53;21.65;;;;;;;-148.24;100.00;61531.34;5047202;28;20361;-61
2024/03/14 07:13:02;;;;;;;84.25;21.88;;;;;;;-148.24;100.00;61531.34;5044584;28;20047;-63
2024/03/14 07:15:28;;;;;;;90.30;22.50;;;;;;;-148.24;100.00;61531.34;5047181;28;20459;-62
2024/03/14 07:17:58;;;;;;;87.55;25.20;;;;;;;-148.24;100.00;61531.34;5046634;28;20040;-62
2024/03/14 07:20:33;;;;;;;59.53;20.98;;;;;;;-148.24;100.00;61531.34;5047524;28;20031;-61
2024/03/14 07:22:59;;;;;;;85.05;22.42;;;;;;;-148.24;100.00;61531.34;5045223;28;20594;-62
2024/03/14 07:25:25;;;;;;;57.22;18.98;;;;;;;-148.24;100.00;61531.34;5044806;28;20326;-61
2024/03/14 07:27:51;;;;;;;84.72;22.98;;;;;;;-148.24;100.00;61531.34;5045577;28;20104;-62
2024/03/14 07:30:16;;;;;;;80.47;18.98;;;;;;;-148.24;100.00;61531.34;5046760;28;20388;-63
2024/03/14 07:32:42;;;;;;;59.15;19.77;;;;;;;-148.24;100.00;61531.34;5028712;28;20314;-63
2024/03/14 07:35:11;;;;;;;80.85;21.73;;;;;;;-148.24;100.00;61531.34;5045459;28;20496;-62
2024/03/14 07:37:40;;;;;;;56.60;19.38;;;;;;;-148.24;100.00;61531.34;5045078;28;20028;-63
2024/03/14 07:40:11;;;;;;;90.63;20.55;;;;;;;-148.24;100.00;61531.34;5045892;28;20032;-63
2024/03/14 07:42:40;;;;;;;64.47;18.60;;;;;;;-148.24;100.00;61531.34;5045840;28;20136;-62
2024/03/14 07:45:40;;;;;;;77.07;19.95;;;;;;;-148.24;100.00;61531.34;5045481;28;20235;-63
2024/03/14 07:47:59;;;;;;;66.45;18.80;;;;;;;-148.24;100.00;61531.34;5043149;28;20036;-64
2024/03/14 07:50:24;;;;;;;54.35;17.35;;;;;;;-148.24;100.00;61531.34;5045924;28;20024;-62
2024/03/14 07:52:49;;;;;;;79.85;17.85;;;;;;;-148.24;100.00;61531.34;5043119;28;20025;-62
2024/03/14 07:55:16;;;;;;;50.70;14.93;;;;;;;-148.24;100.00;61531.34;5046289;28;20617;-61
2024/03/14 07:57:42;;;;;;;40.60;15.13;;;;;;;-148.24;100.00;61531.34;5045061;28;20252;-62
2024/03/14 08:00:08;;;;;;;88.28;17.73;;;;;;;-148.24;100.00;61531.34;5044126;28;20036;-64
2024/03/14 08:02:34;;;;;;;54.25;15.85;;;;;;;-148.24;100.00;61531.34;5045428;28;20040;-63
2024/03/14 08:05:03;;;;;;;82.95;15.77;;;;;;;-148.24;100.00;61531.34;5045266;28;20025;-61
2024/03/14 08:07:29;;;;;;;67.95;15.15;;;;;;;-148.24;100.00;61531.34;5045487;28;20063;-62
2024/03/14 08:09:57;;;;;;;79.13;15.07;;;;;;;-148.24;100.00;61531.34;5045886;28;20064;-61
2024/03/14 08:12:24;;;;;;;77.85;15.32;;;;;;;-148.24;100.00;61531.34;5044797;28;20041;-62
2024/03/14 08:14:49;;;;;;;55.85;12.93;;;;;;;-148.24;100.00;61531.34;5044821;28;20112;-61
2024/03/14 08:17:14;;;;;;;60.53;13.45;;;;;;;-148.24;100.00;61531.34;5043756;28;20051;-61
2024/03/14 08:19:40;;;;;;;76.30;14.10;;;;;;;-148.24;100.00;61531.34;5045706;28;20111;-62
2024/03/14 08:22:06;;;;;;;73.68;14.68;;;;;;;-148.24;100.00;61531.34;5044911;28;20267;-61
2024/03/14 08:24:46;;;;;;;49.22;12.52;;;;;;;-148.24;100.00;61531.34;5030162;28;20484;-63
2024/03/14 08:27:12;;;;;;;57.90;12.85;;;;;;;-148.24;100.00;61531.34;5045931;28;20452;-62
2024/03/14 08:29:39;;;;;;;50.63;11.98;;;;;;;-148.24;100.00;61531.34;5047554;28;20256;-62
2024/03/14 08:32:05;;;;;;;78.22;11.80;;;;;;;-148.24;100.00;61531.34;5042528;28;20048;-62
2024/03/14 08:34:33;;;;;;;51.88;11.63;;;;;;;-148.24;100.00;61531.34;5060978;28;20029;-63
2024/03/14 08:36:58;;;;;;;76.82;12.90;;;;;;;-148.24;100.00;61531.34;5043789;28;20431;-62
2024/03/14 08:39:26;;;;;;;69.35;12.52;;;;;;;-148.24;100.00;61531.34;5045266;28;20489;-62
2024/03/14 08:41:52;;;;;;;46.20;10.20;;;;;;;-148.24;100.00;61531.34;5041742;28;20420;-61
2024/03/14 08:44:17;;;;;;;50.50;11.77;;;;;;;-148.24;100.00;61531.34;5046315;28;20488;-62
2024/03/14 08:46:43;;;;;;;51.38;10.55;;;;;;;-148.24;100.00;61531.34;5045995;28;20039;-62
2024/03/14 08:49:08;;;;;;;61.88;11.93;;;;;;;-148.24;100.00;61531.34;5044030;28;20021;-61
2024/03/14 08:51:37;;;;;;;47.88;10.55;;;;;;;-148.24;100.00;61531.34;5049327;28;20461;-63
2024/03/14 08:54:09;;;;;;;51.20;10.63;;;;;;;-148.24;100.00;61531.34;5052194;28;20024;-62
2024/03/14 08:56:37;;;;;;;51.70;11.00;;;;;;;-148.24;100.00;61531.34;5049806;28;20519;-62
2024/03/14 08:59:03;;;;;;;83.82;13.57;;;;;;;-148.24;100.00;61531.34;5046906;28;20020;-62
2024/03/14 09:01:29;;;;;;;57.20;11.30;;;;;;;-148.24;100.00;61531.34;5048926;28;20079;-64
2024/03/14 09:03:55;;;;;;;53.25;10.85;;;;;;;-148.24;100.00;61531.34;5049607;28;20037;-63
2024/03/14 09:06:21;;;;;;;61.03;11.10;;;;;;;-148.24;100.00;61531.34;5045559;28;20032;-64
2024/03/14 09:08:46;;;;;;;45.83;8.95;;;;;;;-148.24;100.00;61531.34;5049311;28;20033;-61
2024/03/14 09:11:12;;;;;;;76.28;12.30;;;;;;;-148.24;100.00;61531.34;5050266;28;20033;-63
2024/03/14 09:13:37;;;;;;;55.38;10.32;;;;;;;-148.24;100.00;61531.34;5049353;28;20021;-62
2024/03/14 09:16:04;;;;;;;73.43;11.70;;;;;;;-148.24;100.00;61531.34;5050458;28;20405;-61
2024/03/14 09:18:29;;;;;;;43.40;10.30;;;;;;;-148.24;100.00;61531.34;5048444;28;20562;-61
2024/03/14 09:20:58;;;;;;;54.40;11.20;;;;;;;-148.24;100.00;61531.34;5046207;28;20348;-63
2024/03/14 09:23:25;;;;;;;48.33;11.85;;;;;;;-148.24;100.00;61531.34;5049786;28;20017;-61
2024/03/14 09:25:55;;;;;;;54.25;13.15;;;;;;;-148.24;100.00;61531.34;5051300;28;20619;-61
2024/03/14 09:28:21;;;;;;;45.20;12.35;;;;;;;-148.24;100.00;61531.34;5050336;28;20477;-62
2024/03/14 09:30:46;;;;;;;41.95;12.13;;;;;;;-148.24;100.00;61531.34;5047522;28;20555;-61
2024/03/14 09:33:12;;;;;;;80.88;15.55;;;;;;;-148.24;100.00;61531.34;5048097;28;20442;-61
2024/03/14 09:35:44;;;;;;;52.92;12.93;;;;;;;-148.24;100.00;61531.34;5048206;28;20119;-61
2024/03/14 09:38:11;;;;;;;73.50;15.60;;;;;;;-148.24;100.00;61531.34;5047543;28;20075;-62
2024/03/14 09:40:38;;;;;;;41.67;12.07;;;;;;;-148.24;100.00;61531.34;5046608;28;20420;-61
2024/03/14 09:43:04;;;;;;;59.75;15.07;;;;;;;-148.24;100.00;61531.34;5048621;28;20025;-61
2024/03/14 09:45:30;;;;;;;59.83;13.10;;;;;;;-148.24;100.00;61531.34;5038285;28;21272;-61
2024/03/14 09:47:56;;;;;;;44.25;12.57;;;;;;;-148.24;100.00;61531.34;5034551;28;20029;-62
2024/03/14 09:50:24;;;;;;;41.75;11.57;;;;;;;-148.24;100.00;61531.34;5049226;28;20017;-60
2024/03/14 09:52:50;;;;;;;60.88;13.80;;;;;;;-148.24;100.00;61531.34;5049600;28;20079;-61
2024/03/14 09:55:16;;;;;;;49.85;13.27;;;;;;;-148.24;100.00;61531.34;5047652;28;20576;-60
2024/03/14 09:57:43;;;;;;;35.72;11.98;;;;;;;-148.24;100.00;61531.34;5035584;28;20115;-62
2024/03/14 10:00:11;;;;;;;98.32;18.13;;;;;;;-148.24;100.00;61531.34;5044141;28;20532;-62
2024/03/14 10:02:38;;;;;;;53.78;14.98;;;;;;;-148.24;100.00;61531.34;5048382;28;20070;-60
2024/03/14 10:05:10;;;;;;;77.20;15.65;;;;;;;-148.24;100.00;61531.34;5045862;28;20634;-60
2024/03/14 10:07:37;;;;;;;45.55;12.93;;;;;;;-148.24;100.00;61531.34;5060567;28;20957;-60
2024/03/14 10:10:04;;;;;;;58.25;13.98;;;;;;;-148.24;100.00;61531.34;5047087;28;20052;-62
2024/03/14 10:12:31;;;;;;;68.28;13.52;;;;;;;-148.24;100.00;61531.34;5048426;28;20119;-62
2024/03/14 10:15:01;;;;;;;39.22;15.95;;;;;;;-148.24;100.00;61531.34;5049076;28;20181;-61
2024/03/14 10:17:30;;;;;;;47.25;11.77;;;;;;;-148.24;100.00;61531.34;5046981;28;20037;-62
2024/03/14 10:19:56;;;;;;;56.03;14.35;;;;;;;-148.24;100.00;61531.34;5046077;28;20040;-61
2024/03/14 10:22:22;;;;;;;45.58;13.48;;;;;;;-148.24;100.00;61531.34;5033120;28;20143;-61
2024/03/14 10:24:47;;;;;;;57.25;13.25;;;;;;;-148.24;100.00;61531.34;5048098;28;20400;-61
2024/03/14 10:27:13;;;;;;;92.95;15.43;;;;;;;-148.24;100.00;61531.34;5046681;28;20467;-61
2024/03/14 10:29:39;;;;;;;46.90;14.93;;;;;;;-148.24;100.00;61531.34;5049799;28;20604;-60
2024/03/14 10:32:10;;;;;;;78.00;12.52;;;;;;;-148.24;100.00;61531.34;5045847;28;20058;-61
2024/03/14 10:34:36;;;;;;;45.97;12.05;;;;;;;-148.24;100.00;61531.34;5048768;28;20423;-60
2024/03/14 10:37:06;;;;;;;47.88;12.40;;;;;;;-148.24;100.00;61531.34;5047807;28;20101;-59
2024/03/14 10:39:36;;;;;;;62.97;14.00;;;;;;;-148.24;100.00;61531.34;5048187;28;20021;-61
2024/03/14 10:42:04;;;;;;;68.10;32.55;;;;;;;-148.24;100.00;61531.34;5045561;28;20037;-61
2024/03/14 10:44:30;;;;;;;53.65;13.65;;;;;;;-148.24;100.00;61531.34;5048160;28;20530;-61
2024/03/14 10:46:57;;;;;;;43.97;13.57;;;;;;;-148.24;100.00;61531.34;5047961;28;20041;-62
2024/03/14 10:49:22;;;;;;;49.72;13.50;;;;;;;-148.24;100.00;61531.34;5044504;28;20021;-61
2024/03/14 10:51:52;;;;;;;55.72;14.02;;;;;;;-148.24;100.00;61531.34;5030034;28;20042;-60